Doha, Qatar

2:23 PM AST on July 24, 2016 (GMT +0300)
Doha International | | Change Station

Elev 33 ft 25.26 °N, 51.57 °E | Updated 23 minutes ago

Clear
Clear
100 °F
Feels Like 114 °F
N
10
Wind Variable Wind from NE

Today
High -- | Low -- °F
--% Chance of Precip.
Yesterday
High -- | Low -- °F
Precip. -- in
Pressure 29.39 in
Visibility 3.1 miles
Clouds
Heat Index 114 °F
Dew Point 75 °F
Humidity 44%
Rainfall 0.00 in
Snow Depth Not available.
4:57 AM 6:23 PM
Waning Gibbous, 77% visible
METAR OTBD 241100Z 05009KT 010V080 5000 DU NSC 38/24 Q0995 NOSIG
Pressure 29.39 in
Visibility 3.1 miles
Clouds
Heat Index 114 °F
Dew Point 75 °F
Humidity 44%
Rainfall 0.00 in
Snow Depth Not available.
4:57 AM 6:23 PM
Waning Gibbous, 77% visible
METAR OTBD 241100Z 05009KT 010V080 5000 DU NSC 38/24 Q0995 NOSIG

10-Day Weather Forecast

No radar image for this location.
×

Almanac

Astronomy

Jul. 24, 2016 Rise Set
Actual Time
Civil Twilight
Nautical Twilight
Astronomical Twilight
Moon
Length of Visible Light
Length of Day
Tomorrow will be .
, % of the Moon is Illuminated

Today's Extremes

Country Highs Country Lows

Community

WunderPhotos

Upload Photos

1,927,048 photos uploaded!

WunderBlog® & News

Nearby

Air Quality

  Air Quality AQ Index Pollutant
Not available.

Snow Depth

Station Depth Elevation

Earthquake Activity

City Distance Mag. Time & Date
Minimum magnitude displayed is 2.5.

Coastal Water Temperatures

Place Temperature

Stations

Nearby Weather Stations

Station Location Temp. Windchill Dew Point Humidity Wind Precip. Elev Updated Type